createdAt,value
2023-10-30T00:05:57.714Z,11.8
2023-10-30T00:14:13.550Z,11.6
2023-10-30T00:22:29.446Z,11.7
2023-10-30T00:39:01.195Z,11.6
2023-10-30T00:47:17.066Z,11.7
2023-10-30T00:55:32.930Z,11.6
2023-10-30T01:03:49.077Z,11.9
2023-10-30T01:12:04.705Z,11.7
2023-10-30T01:20:20.525Z,11.6
2023-10-30T01:28:36.428Z,11.7
2023-10-30T01:36:52.318Z,11.6
2023-10-30T01:45:08.185Z,11.5
2023-10-30T01:53:24.008Z,11.6
2023-10-30T02:01:39.921Z,11.5
2023-10-30T02:09:55.785Z,11.6
2023-10-30T02:18:11.641Z,11.5
2023-10-30T02:26:27.490Z,11.6
2023-10-30T02:34:43.350Z,11.4
2023-10-30T02:42:59.238Z,11.3
2023-10-30T02:51:15.047Z,11.3
2023-10-30T02:59:30.892Z,11.1
2023-10-30T03:07:46.732Z,10.9
2023-10-30T03:16:02.615Z,10.7
2023-10-30T03:24:18.477Z,10.7
2023-10-30T03:32:34.241Z,10.6
2023-10-30T03:40:50.083Z,10.6
2023-10-30T03:49:05.948Z,10.7
2023-10-30T03:57:21.816Z,10.7
2023-10-30T04:05:37.565Z,10.6
2023-10-30T04:13:53.430Z,10.5
2023-10-30T04:22:09.285Z,10.5
2023-10-30T04:30:25.146Z,10.5
2023-10-30T04:38:40.882Z,10.4
2023-10-30T04:46:56.741Z,10.6
2023-10-30T04:55:12.597Z,10.7
2023-10-30T05:03:28.364Z,10.6
2023-10-30T05:11:44.164Z,10.5
2023-10-30T05:19:59.988Z,10.4
2023-10-30T05:28:15.854Z,10.4
2023-10-30T05:36:31.578Z,10.3
2023-10-30T05:53:03.206Z,10.1
2023-10-30T06:01:19.033Z,10.1
2023-10-30T06:09:34.886Z,10.2
2023-10-30T06:17:50.641Z,10.3
2023-10-30T06:26:06.449Z,10.2
2023-10-30T06:34:22.314Z,10.2
2023-10-30T06:42:38.141Z,10.4
2023-10-30T06:50:53.882Z,10.7
2023-10-30T06:59:10.602Z,11.1
2023-10-30T07:07:25.525Z,11.5
2023-10-30T07:15:41.358Z,11.7
2023-10-30T07:23:57.201Z,11.8
2023-10-30T07:32:13.063Z,12
2023-10-30T07:40:28.952Z,12.2
2023-10-30T07:48:44.818Z,12.4
2023-10-30T07:57:00.692Z,12.7
2023-10-30T08:05:16.572Z,12.9
2023-10-30T08:13:32.486Z,13.1
2023-10-30T08:21:48.402Z,13.5
2023-10-30T08:38:22.785Z,14
2023-10-30T08:54:52.132Z,14.3
2023-10-30T09:11:24.010Z,14.6
2023-10-30T10:09:15.840Z,15.2
2023-10-30T10:25:47.810Z,14.2
2023-10-30T10:34:03.819Z,13.8
2023-10-30T10:42:19.763Z,13.6
2023-10-30T10:50:35.687Z,13.5
2023-10-30T11:07:07.503Z,14
2023-10-30T11:23:39.384Z,13.1
2023-10-30T11:31:55.358Z,13
2023-10-30T11:40:11.237Z,13.9
2023-10-30T12:21:30.856Z,13.9
2023-10-30T13:03:08.025Z,13.5
2023-10-30T13:27:47.050Z,12.5
2023-10-30T13:44:10.108Z,12.4
2023-10-30T14:00:41.973Z,12.3
2023-10-30T14:08:57.757Z,12.1
2023-10-30T14:17:13.626Z,11.8
2023-10-30T14:33:45.381Z,11.3
2023-10-30T14:42:01.212Z,11.3
2023-10-30T14:50:17.098Z,11.2
2023-10-30T14:58:32.977Z,11.4
2023-10-30T15:06:48.828Z,11.5
2023-10-30T15:15:04.704Z,11.4
2023-10-30T15:23:20.548Z,11.5
2023-10-30T15:31:36.417Z,11.6
2023-10-30T15:48:08.174Z,11.5
2023-10-30T16:12:55.776Z,11.6
2023-10-30T16:37:43.383Z,11.5
2023-10-30T16:45:59.313Z,11.4
2023-10-30T16:54:15.134Z,11.4
2023-10-30T17:02:31.031Z,11.3
2023-10-30T17:27:18.619Z,11
2023-10-30T17:43:50.338Z,10.9
2023-10-30T17:52:06.173Z,10.8
2023-10-30T18:00:22.038Z,10.6
2023-10-30T18:08:37.865Z,10.6
2023-10-30T18:25:09.579Z,10.5
2023-10-30T18:33:25.441Z,10.5
2023-10-30T18:41:41.240Z,10.4
2023-10-30T18:58:12.912Z,10.6
2023-10-30T19:06:28.746Z,10.7
2023-10-30T19:23:00.448Z,10.8
2023-10-30T19:47:47.991Z,10.9
2023-10-30T20:04:19.699Z,11.1
2023-10-30T20:12:35.573Z,11.1
2023-10-30T20:20:51.430Z,11.2
2023-10-30T20:37:32.048Z,10.9
2023-10-30T20:54:03.550Z,10.8
2023-10-30T21:02:10.748Z,10.8
2023-10-30T21:35:14.071Z,10.7
2023-10-30T21:43:29.912Z,10.7
2023-10-30T22:16:33.321Z,11.2
2023-10-30T22:24:49.197Z,11.1
2023-10-30T22:33:05.003Z,11
2023-10-30T22:41:20.873Z,11.1
2023-10-30T22:57:52.575Z,11.1
2023-10-30T23:06:08.431Z,11.1
2023-10-30T23:14:24.273Z,11.1
2023-10-30T23:30:56.065Z,10.8
2023-10-30T23:39:11.861Z,10.6
2023-10-30T23:55:43.567Z,10.5
